This is the latest recevied weather packets stored in our database for station/object AI5BL. If no packets are shown the sender has not sent any weather packets the latest 10 day(s).
| Time | Temp. | Humidity | Pressure | Rain* | Wind** | Luminosity | Snow |
|---|---|---|---|---|---|---|---|
| 1777992575 | 22.78° C | 71% | 1016.2 hPa | 0 mm | - | 370 W/m² | - |
| 1777992273 | 22.78° C | 74% | 1016.1 hPa | 0 mm | - | 487 W/m² | - |
| 1777991970 | 22.22° C | 75% | 1016.1 hPa | 0 mm | - | 433 W/m² | - |
| 1777991668 | 22.22° C | 72% | 1016 hPa | 0 mm | - | 339 W/m² | - |
| 1777991365 | 22.22° C | 73% | 1015.9 hPa | 0 mm | - | 381 W/m² | - |
| 1777991062 | 22.78° C | 75% | 1016 hPa | 0 mm | - | 392 W/m² | - |
| 1777990759 | 22.22° C | 75% | 1016 hPa | 0 mm | - | 384 W/m² | - |
| 1777990456 | 21.67° C | 76% | 1015.9 hPa | 0 mm | - | 367 W/m² | - |
| 1777989849 | 20.56° C | 78% | 1015.8 hPa | 0 mm | - | 426 W/m² | - |
| 1777989546 | 20.56° C | 76% | 1015.9 hPa | 0 mm | - | 336 W/m² | - |
| 1777989243 | 20° C | 78% | 1015.9 hPa | 0 mm | - | 335 W/m² | - |
| 1777988939 | 19.44° C | 79% | 1016.2 hPa | 0 mm | - | 330 W/m² | - |
| 1777988636 | 18.89° C | 80% | 1016.1 hPa | 0 mm | - | 279 W/m² | - |
| 1777988332 | 18.33° C | 84% | 1016 hPa | 0 mm | - | 228 W/m² | - |
| 1777988030 | 18.33° C | 84% | 1016.1 hPa | 0 mm | - | 181 W/m² | - |
| 1777987725 | 17.78° C | 85% | 1016.1 hPa | 0 mm | - | 158 W/m² | - |
| 1777987422 | 17.78° C | 85% | 1016.4 hPa | 0 mm | - | 173 W/m² | - |
| 1777987119 | 17.22° C | 85% | 1016.2 hPa | 0 mm | - | 169 W/m² | - |
| 1777986817 | 17.22° C | 85% | 1016.1 hPa | 0 mm | - | 157 W/m² | - |
| 1777986514 | 17.22° C | 85% | 1016.2 hPa | 0 mm | - | 156 W/m² | - |
| 1777986212 | 16.67° C | 87% | 1016.3 hPa | 0 mm | - | 144 W/m² | - |
| 1777985909 | 16.67° C | 86% | 1016.3 hPa | 0 mm | - | 135 W/m² | - |
| 1777985607 | 16.11° C | 88% | 1016.4 hPa | 0 mm | - | 130 W/m² | - |
| 1777985303 | 16.11° C | 89% | 1016.5 hPa | 0 mm | - | 114 W/m² | - |
| 1777985000 | 15.56° C | 89% | 1016.2 hPa | 0 mm | - | 121 W/m² | - |
* Rain latest hour (hover to see other rain measurements)
** Current wind speed in m/s (hover to see current wind gust speed)